Time;durP1;ratioP1;P1;durP2;ratioP2;P2;SDS_P1;SDS_P2;PMS_P1;PMS_P2;Temp;Humidity;BMP_temperature;BMP_pressure;BME280_temperature;BME280_humidity;BME280_pressure;Samples;Min_cycle;Max_cycle;Signal;HPM_P1;HPM_P2
2023/12/24 00:00:43;;;;;;;;;;;16.80;65.90;;;;;;7319641;19;9587;-60
2023/12/24 00:03:12;;;;;;;;;;;16.90;66.00;;;;;;7320456;19;8944;-60
2023/12/24 00:05:41;;;;;;;;;;;16.90;66.00;;;;;;7320236;19;9239;-60
2023/12/24 00:08:10;;;;;;;;;;;16.90;66.00;;;;;;7320585;19;10836;-60
2023/12/24 00:10:39;;;;;;;;;;;16.80;66.00;;;;;;7319896;19;10167;-60
2023/12/24 00:13:08;;;;;;;;;;;16.80;65.90;;;;;;7319528;19;9220;-60
2023/12/24 00:15:40;;;;;;;;;;;16.80;66.00;;;;;;7320078;19;9282;-60
2023/12/24 00:18:09;;;;;;;;;;;16.80;65.90;;;;;;7319549;19;9298;-60
2023/12/24 00:20:39;;;;;;;;;;;16.80;66.00;;;;;;7320303;19;10589;-60
2023/12/24 00:23:10;;;;;;;;;;;16.80;66.20;;;;;;7319194;19;9452;-60
2023/12/24 00:25:41;;;;;;;;;;;16.80;66.50;;;;;;7319409;19;9608;-60
2023/12/24 00:28:10;;;;;;;;;;;16.80;66.10;;;;;;7319130;19;9392;-60
2023/12/24 00:30:41;;;;;;;;;;;16.80;66.00;;;;;;7318591;19;9485;-60
2023/12/24 00:33:30;;;;;;;;;;;16.80;66.00;;;;;;7318450;19;9232;-60
2023/12/24 00:35:59;;;;;;;;;;;16.80;65.90;;;;;;7319403;19;9615;-61
2023/12/24 00:38:28;;;;;;;;;;;16.90;66.00;;;;;;7319977;19;9469;-60
2023/12/24 00:40:57;;;;;;;;;;;16.80;66.00;;;;;;7316598;19;9214;-60
2023/12/24 00:43:26;;;;;;;;;;;16.90;66.10;;;;;;7319361;19;9689;-60
2023/12/24 00:45:58;;;;;;;;;;;16.80;66.00;;;;;;7318732;19;10240;-60
2023/12/24 00:48:27;;;;;;;;;;;16.80;66.10;;;;;;7319044;19;9393;-60
2023/12/24 00:50:56;;;;;;;;;;;16.80;66.10;;;;;;7318880;19;9472;-60
2023/12/24 00:53:25;;;;;;;;;;;16.90;66.10;;;;;;7318707;19;9446;-60
2023/12/24 00:55:54;;;;;;;;;;;16.80;66.00;;;;;;7318337;19;9551;-60
2023/12/24 00:58:24;;;;;;;;;;;16.90;66.20;;;;;;7318864;19;9479;-60
2023/12/24 01:00:53;;;;;;;;;;;16.80;66.10;;;;;;7318863;19;9443;-60
2023/12/24 01:03:25;;;;;;;;;;;16.80;66.10;;;;;;7318686;19;9562;-60
2023/12/24 01:05:53;;;;;;;;;;;16.80;66.20;;;;;;7318556;19;9196;-60
2023/12/24 01:08:23;;;;;;;;;;;16.80;66.20;;;;;;7317943;19;9778;-60
2023/12/24 01:10:51;;;;;;;;;;;16.80;66.30;;;;;;7318155;19;9237;-60
2023/12/24 01:13:21;;;;;;;;;;;16.80;66.30;;;;;;7317823;19;9609;-60
2023/12/24 01:15:50;;;;;;;;;;;16.80;66.20;;;;;;7318617;19;9557;-60
2023/12/24 01:18:19;;;;;;;;;;;16.80;66.10;;;;;;7317934;19;9571;-60
2023/12/24 01:20:52;;;;;;;;;;;16.80;66.90;;;;;;7318263;19;9461;-60
2023/12/24 01:23:22;;;;;;;;;;;16.70;66.20;;;;;;7317725;19;9605;-60
2023/12/24 01:26:10;;;;;;;;;;;16.80;66.30;;;;;;7316197;19;9546;-60
2023/12/24 01:28:39;;;;;;;;;;;16.80;66.10;;;;;;7318117;19;9282;-60
2023/12/24 01:31:08;;;;;;;;;;;16.80;66.30;;;;;;7318016;19;9115;-60
2023/12/24 01:33:38;;;;;;;;;;;16.80;66.30;;;;;;7318623;19;9154;-60
2023/12/24 01:36:10;;;;;;;;;;;16.80;66.20;;;;;;7317605;19;9237;-60
2023/12/24 01:38:39;;;;;;;;;;;16.80;66.30;;;;;;7317879;19;9248;-60
2023/12/24 01:41:08;;;;;;;;;;;16.80;66.30;;;;;;7317157;19;9460;-60
2023/12/24 01:43:37;;;;;;;;;;;16.80;66.40;;;;;;7318053;19;9340;-61
2023/12/24 01:46:10;;;;;;;;;;;16.80;66.50;;;;;;7316877;19;9486;-60
2023/12/24 01:48:41;;;;;;;;;;;16.80;66.40;;;;;;7318157;19;9268;-60
2023/12/24 01:51:13;;;;;;;;;;;16.80;66.40;;;;;;7317415;19;9224;-61
2023/12/24 01:53:44;;;;;;;;;;;16.80;66.40;;;;;;7316833;19;9366;-61
2023/12/24 01:56:17;;;;;;;;;;;16.70;66.40;;;;;;7316991;19;9458;-61
2023/12/24 01:58:46;;;;;;;;;;;16.80;66.50;;;;;;7317099;19;9422;-61
2023/12/24 02:01:36;;;;;;;;;;;16.80;66.40;;;;;;7315854;19;9314;-61
2023/12/24 02:04:06;;;;;;;;;;;16.70;66.40;;;;;;7316500;19;10981;-61
2023/12/24 02:06:57;;;;;;;;;;;16.70;66.20;;;;;;7314468;19;10283;-61
2023/12/24 02:09:26;;;;;;;;;;;16.80;66.60;;;;;;7319602;19;9549;-61
2023/12/24 02:11:56;;;;;;;;;;;16.70;66.40;;;;;;7323150;19;9626;-61
2023/12/24 02:14:25;;;;;;;;;;;16.70;66.30;;;;;;7324061;19;9238;-61
2023/12/24 02:16:58;;;;;;;;;;;16.70;66.50;;;;;;7322969;19;9211;-61
2023/12/24 02:19:27;;;;;;;;;;;16.70;66.30;;;;;;7323395;19;9466;-61
2023/12/24 02:22:00;;;;;;;;;;;16.70;66.40;;;;;;7323368;19;9390;-61
2023/12/24 02:24:30;;;;;;;;;;;16.70;66.40;;;;;;7322314;19;9501;-61
2023/12/24 02:27:13;;;;;;;;;;;16.70;66.30;;;;;;7323293;19;9554;-61
2023/12/24 02:29:45;;;;;;;;;;;16.70;66.40;;;;;;7323084;19;9520;-61
2023/12/24 02:32:17;;;;;;;;;;;16.70;66.30;;;;;;7323706;19;9521;-61
2023/12/24 02:34:49;;;;;;;;;;;16.70;66.40;;;;;;7323087;19;9527;-61
2023/12/24 02:37:20;;;;;;;;;;;16.70;66.50;;;;;;7322777;19;9510;-61
2023/12/24 02:39:47;;;;;;;;;;;16.70;66.50;;;;;;7322324;19;9229;-61
2023/12/24 02:42:36;;;;;;;;;;;16.70;66.40;;;;;;7321018;19;9237;-62
2023/12/24 02:45:06;;;;;;;;;;;16.70;66.50;;;;;;7321777;19;9513;-61
2023/12/24 02:47:37;;;;;;;;;;;16.70;66.50;;;;;;7322884;19;9217;-61
2023/12/24 02:50:06;;;;;;;;;;;16.70;66.50;;;;;;7321363;19;9384;-61
2023/12/24 02:52:37;;;;;;;;;;;16.70;66.70;;;;;;7321463;19;9354;-61
2023/12/24 02:55:07;;;;;;;;;;;16.70;66.60;;;;;;7321964;19;9468;-61
2023/12/24 02:57:36;;;;;;;;;;;16.70;66.60;;;;;;7321221;19;9251;-61
2023/12/24 03:00:08;;;;;;;;;;;16.70;66.60;;;;;;7321446;19;10082;-61
2023/12/24 03:02:37;;;;;;;;;;;16.70;66.70;;;;;;7322197;19;9490;-61
2023/12/24 03:05:07;;;;;;;;;;;16.70;66.60;;;;;;7329084;19;9529;-61
2023/12/24 03:07:38;;;;;;;;;;;16.70;66.60;;;;;;7328827;19;9316;-61
2023/12/24 03:10:08;;;;;;;;;;;16.70;66.70;;;;;;7328899;19;9197;-61
2023/12/24 03:12:37;;;;;;;;;;;16.70;66.70;;;;;;7328243;19;9596;-61
2023/12/24 03:15:26;;;;;;;;;;;16.70;66.70;;;;;;7327326;19;9344;-61
2023/12/24 03:17:55;;;;;;;;;;;16.70;66.70;;;;;;7328011;19;9287;-61
2023/12/24 03:20:24;;;;;;;;;;;16.70;66.70;;;;;;7327677;19;9551;-61
2023/12/24 03:22:56;;;;;;;;;;;16.60;66.60;;;;;;7327438;19;9490;-61
2023/12/24 03:25:26;;;;;;;;;;;16.70;66.70;;;;;;7328459;19;9300;-61
2023/12/24 03:27:55;;;;;;;;;;;16.70;66.90;;;;;;7327845;19;10394;-61
2023/12/24 03:30:24;;;;;;;;;;;16.70;66.70;;;;;;7328597;19;9465;-61
2023/12/24 03:33:13;;;;;;;;;;;16.70;66.80;;;;;;7326952;19;9549;-59
2023/12/24 03:35:43;;;;;;;;;;;16.60;66.70;;;;;;7327217;19;9213;-59
2023/12/24 03:38:14;;;;;;;;;;;16.60;66.70;;;;;;7328273;19;10668;-59
2023/12/24 03:40:43;;;;;;;;;;;16.60;66.80;;;;;;7327529;19;9190;-59
2023/12/24 03:43:12;;;;;;;;;;;16.60;66.90;;;;;;7327719;19;9457;-59
2023/12/24 03:45:41;;;;;;;;;;;16.60;66.80;;;;;;7327720;19;10225;-59
2023/12/24 03:48:11;;;;;;;;;;;16.60;66.60;;;;;;7327501;19;9470;-58
2023/12/24 03:50:40;;;;;;;;;;;16.60;66.70;;;;;;7327853;19;9239;-58
2023/12/24 03:53:09;;;;;;;;;;;16.60;66.90;;;;;;7327160;19;10379;-58
2023/12/24 03:55:41;;;;;;;;;;;16.60;66.90;;;;;;7328127;19;9179;-58
2023/12/24 03:58:10;;;;;;;;;;;16.60;66.80;;;;;;7326435;19;9655;-59
2023/12/24 04:00:39;;;;;;;;;;;16.60;67.40;;;;;;7328178;19;9509;-61
2023/12/24 04:03:07;;;;;;;;;;;16.60;66.80;;;;;;7327035;19;9262;-61
2023/12/24 04:05:36;;;;;;;;;;;16.60;66.90;;;;;;7327442;19;9502;-61
2023/12/24 04:08:06;;;;;;;;;;;16.60;66.80;;;;;;7326905;19;9486;-61
2023/12/24 04:10:39;;;;;;;;;;;16.60;66.90;;;;;;7327558;19;9144;-61
2023/12/24 04:13:11;;;;;;;;;;;16.60;66.90;;;;;;7327231;19;11097;-59
2023/12/24 04:16:00;;;;;;;;;;;16.60;67.10;;;;;;7322756;19;9513;-58
2023/12/24 04:18:29;;;;;;;;;;;16.60;66.90;;;;;;7327023;19;9273;-59
2023/12/24 04:20:57;;;;;;;;;;;16.60;66.90;;;;;;7326471;19;9620;-59
2023/12/24 04:23:27;;;;;;;;;;;16.60;66.90;;;;;;7327189;19;9131;-59
2023/12/24 04:25:56;;;;;;;;;;;16.60;67.00;;;;;;7326247;19;10700;-59
2023/12/24 04:28:28;;;;;;;;;;;16.60;67.00;;;;;;7326780;19;9137;-59
2023/12/24 04:30:56;;;;;;;;;;;16.60;66.90;;;;;;7325804;19;9504;-60
2023/12/24 04:33:45;;;;;;;;;;;16.60;67.00;;;;;;7324706;19;9489;-59
2023/12/24 04:36:20;;;;;;;;;;;16.60;67.00;;;;;;7327721;19;9462;-59
2023/12/24 04:38:49;;;;;;;;;;;16.60;67.00;;;;;;7325794;19;9222;-59
2023/12/24 04:41:19;;;;;;;;;;;16.60;67.10;;;;;;7326868;19;11576;-59
2023/12/24 04:43:50;;;;;;;;;;;16.60;67.10;;;;;;7325539;19;9474;-60
2023/12/24 04:46:19;;;;;;;;;;;16.60;67.10;;;;;;7325939;19;9341;-59
2023/12/24 04:48:48;;;;;;;;;;;16.60;67.20;;;;;;7325517;19;9315;-59
2023/12/24 04:51:18;;;;;;;;;;;16.60;67.00;;;;;;7326176;19;9620;-59
2023/12/24 04:53:47;;;;;;;;;;;16.60;67.20;;;;;;7325424;19;10398;-59
2023/12/24 04:56:22;;;;;;;;;;;16.60;67.20;;;;;;7326103;19;9518;-59
2023/12/24 04:58:56;;;;;;;;;;;16.60;67.10;;;;;;7325905;19;9473;-59
2023/12/24 05:01:25;;;;;;;;;;;16.60;67.20;;;;;;7325444;19;9165;-59
2023/12/24 05:03:54;;;;;;;;;;;16.60;67.30;;;;;;7325854;19;9453;-59
2023/12/24 05:06:23;;;;;;;;;;;16.60;67.20;;;;;;7325606;19;9449;-59
2023/12/24 05:08:52;;;;;;;;;;;16.50;67.30;;;;;;7325635;19;9524;-59
2023/12/24 05:11:21;;;;;;;;;;;16.60;67.50;;;;;;7325081;19;9409;-59
2023/12/24 05:13:50;;;;;;;;;;;16.50;67.20;;;;;;7325569;19;9414;-59
2023/12/24 05:16:22;;;;;;;;;;;16.50;67.30;;;;;;7324427;19;9588;-59
2023/12/24 05:18:52;;;;;;;;;;;16.50;67.30;;;;;;7325215;19;9508;-59
2023/12/24 05:21:21;;;;;;;;;;;16.60;67.30;;;;;;7324636;19;9166;-59
2023/12/24 05:23:51;;;;;;;;;;;16.60;67.30;;;;;;7325657;19;9304;-59
2023/12/24 05:26:20;;;;;;;;;;;16.50;67.30;;;;;;7324140;19;9457;-59
2023/12/24 05:28:48;;;;;;;;;;;16.50;67.20;;;;;;7324501;19;9193;-59
2023/12/24 05:31:17;;;;;;;;;;;16.50;67.30;;;;;;7324163;19;9574;-59
2023/12/24 05:33:49;;;;;;;;;;;16.50;67.20;;;;;;7324771;19;9460;-59
2023/12/24 05:36:18;;;;;;;;;;;16.60;67.20;;;;;;7324609;19;9534;-59
2023/12/24 05:38:47;;;;;;;;;;;16.50;67.30;;;;;;7324222;19;10334;-59
2023/12/24 05:41:18;;;;;;;;;;;16.50;67.10;;;;;;7325154;19;9170;-59
2023/12/24 05:43:46;;;;;;;;;;;16.60;67.30;;;;;;7324152;19;9485;-59
2023/12/24 05:46:16;;;;;;;;;;;16.50;67.40;;;;;;7323980;19;9282;-59
2023/12/24 05:48:45;;;;;;;;;;;16.50;67.40;;;;;;7323893;19;9415;-59
2023/12/24 05:51:17;;;;;;;;;;;16.50;67.40;;;;;;7323857;19;9258;-59
2023/12/24 05:53:46;;;;;;;;;;;16.50;67.30;;;;;;7323346;19;9602;-60
2023/12/24 05:56:35;;;;;;;;;;;16.50;67.40;;;;;;7323050;19;9279;-59
2023/12/24 05:59:25;;;;;;;;;;;16.50;67.40;;;;;;7322356;19;9216;-59
2023/12/24 06:01:54;;;;;;;;;;;16.50;67.50;;;;;;7323620;19;9206;-59
2023/12/24 06:04:23;;;;;;;;;;;16.50;68.10;;;;;;7322369;19;11651;-59
2023/12/24 06:06:54;;;;;;;;;;;16.50;67.40;;;;;;7323512;19;10655;-59
2023/12/24 06:09:23;;;;;;;;;;;16.50;67.50;;;;;;7324251;19;9199;-59
2023/12/24 06:11:52;;;;;;;;;;;16.50;67.60;;;;;;7323498;19;9372;-59
2023/12/24 06:14:21;;;;;;;;;;;16.50;67.50;;;;;;7323534;19;9482;-59
2023/12/24 06:16:50;;;;;;;;;;;16.50;67.60;;;;;;7323986;19;9441;-59
2023/12/24 06:19:19;;;;;;;;;;;16.50;67.60;;;;;;7322623;19;10555;-59
2023/12/24 06:21:48;;;;;;;;;;;16.50;67.50;;;;;;7323871;19;9199;-59
2023/12/24 06:24:21;;;;;;;;;;;16.50;67.40;;;;;;7322554;19;9385;-59
2023/12/24 06:26:50;;;;;;;;;;;16.50;67.60;;;;;;7323600;19;9214;-59
2023/12/24 06:29:18;;;;;;;;;;;16.50;68.10;;;;;;7322063;19;9454;-59
2023/12/24 06:31:47;;;;;;;;;;;16.50;67.60;;;;;;7323619;19;10610;-59
2023/12/24 06:34:17;;;;;;;;;;;16.50;67.60;;;;;;7322275;19;9667;-59
2023/12/24 06:36:46;;;;;;;;;;;16.50;67.60;;;;;;7323171;19;9446;-59
2023/12/24 06:39:14;;;;;;;;;;;16.50;67.70;;;;;;7326875;19;9700;-59
2023/12/24 06:42:07;;;;;;;;;;;16.50;67.70;;;;;;7327981;19;10438;-60
2023/12/24 06:44:36;;;;;;;;;;;16.50;67.60;;;;;;7328181;19;9515;-60
2023/12/24 06:47:05;;;;;;;;;;;16.50;67.70;;;;;;7328446;19;9289;-59
2023/12/24 06:49:34;;;;;;;;;;;16.50;67.70;;;;;;7329721;19;9789;-59
2023/12/24 06:52:03;;;;;;;;;;;16.50;67.70;;;;;;7328735;19;9457;-59
2023/12/24 06:54:32;;;;;;;;;;;16.50;67.70;;;;;;7329493;19;9480;-59
2023/12/24 06:57:01;;;;;;;;;;;16.50;67.80;;;;;;7328691;19;9194;-59
2023/12/24 06:59:32;;;;;;;;;;;16.50;67.70;;;;;;7328843;19;9212;-59
2023/12/24 07:02:01;;;;;;;;;;;16.40;67.70;;;;;;7328821;19;9217;-59
2023/12/24 07:04:30;;;;;;;;;;;16.50;67.80;;;;;;7329024;19;10663;-59
2023/12/24 07:06:59;;;;;;;;;;;16.50;67.90;;;;;;7328623;19;9465;-60
2023/12/24 07:09:28;;;;;;;;;;;16.50;67.70;;;;;;7328338;19;9549;-60
2023/12/24 07:11:57;;;;;;;;;;;16.50;67.80;;;;;;7328634;19;11493;-60
2023/12/24 07:14:26;;;;;;;;;;;16.50;67.80;;;;;;7327673;19;9486;-60
2023/12/24 07:16:57;;;;;;;;;;;16.50;67.70;;;;;;7328199;19;9222;-60
2023/12/24 07:19:26;;;;;;;;;;;16.50;67.80;;;;;;7326805;19;9444;-60
2023/12/24 07:21:55;;;;;;;;;;;16.50;67.80;;;;;;7327633;19;11994;-60
2023/12/24 07:24:25;;;;;;;;;;;16.40;67.80;;;;;;7327341;19;10800;-61
2023/12/24 07:26:54;;;;;;;;;;;16.50;67.80;;;;;;7328006;19;10663;-63
2023/12/24 07:29:22;;;;;;;;;;;16.50;67.90;;;;;;7327318;19;9477;-60
2023/12/24 07:31:51;;;;;;;;;;;16.50;68.00;;;;;;7328881;19;9214;-60
2023/12/24 07:34:23;;;;;;;;;;;16.50;67.90;;;;;;7327818;19;9351;-59
2023/12/24 07:36:52;;;;;;;;;;;16.40;67.90;;;;;;7328229;19;9497;-60
2023/12/24 07:39:21;;;;;;;;;;;16.40;68.00;;;;;;7327679;19;9489;-60
2023/12/24 07:41:49;;;;;;;;;;;16.40;68.00;;;;;;7327520;19;9558;-60
2023/12/24 07:44:18;;;;;;;;;;;16.40;68.00;;;;;;7327844;19;9662;-60
2023/12/24 07:46:47;;;;;;;;;;;16.40;68.00;;;;;;7327942;19;9394;-60
2023/12/24 07:49:16;;;;;;;;;;;16.40;68.10;;;;;;7327057;19;9291;-60
2023/12/24 07:51:48;;;;;;;;;;;16.40;68.10;;;;;;7327099;19;10728;-60
2023/12/24 07:54:17;;;;;;;;;;;16.50;68.10;;;;;;7327067;19;8995;-60
2023/12/24 07:56:46;;;;;;;;;;;16.40;68.20;;;;;;7326378;19;9213;-60
2023/12/24 07:59:15;;;;;;;;;;;16.40;68.10;;;;;;7327720;19;9658;-60
2023/12/24 08:01:44;;;;;;;;;;;16.40;68.20;;;;;;7326419;19;9615;-60
2023/12/24 08:04:13;;;;;;;;;;;16.40;68.10;;;;;;7326974;19;9665;-60
2023/12/24 08:06:42;;;;;;;;;;;16.40;68.20;;;;;;7325495;19;9461;-60
2023/12/24 08:09:13;;;;;;;;;;;16.40;68.30;;;;;;7326651;19;9405;-60
2023/12/24 08:12:02;;;;;;;;;;;16.40;68.20;;;;;;7324996;19;9466;-60
2023/12/24 08:14:31;;;;;;;;;;;16.40;68.30;;;;;;7326259;19;9457;-60
2023/12/24 08:17:00;;;;;;;;;;;16.40;68.30;;;;;;7326184;19;9144;-60
2023/12/24 08:19:29;;;;;;;;;;;16.40;68.40;;;;;;7325760;19;9209;-60
2023/12/24 08:21:58;;;;;;;;;;;16.40;68.30;;;;;;7326970;19;9467;-60
2023/12/24 08:24:31;;;;;;;;;;;16.40;68.40;;;;;;7325868;19;9234;-60
2023/12/24 08:27:00;;;;;;;;;;;16.40;68.20;;;;;;7325863;19;10368;-60
2023/12/24 08:29:31;;;;;;;;;;;16.40;68.40;;;;;;7326243;19;9139;-60
2023/12/24 08:32:00;;;;;;;;;;;16.40;68.30;;;;;;7326793;19;10735;-60
2023/12/24 08:34:29;;;;;;;;;;;16.50;68.50;;;;;;7326095;19;9481;-60
2023/12/24 08:36:58;;;;;;;;;;;16.40;68.40;;;;;;7325599;19;9432;-60
2023/12/24 08:39:29;;;;;;;;;;;16.40;68.60;;;;;;7325575;19;9536;-60
2023/12/24 08:41:58;;;;;;;;;;;16.40;68.50;;;;;;7324811;19;9549;-60
2023/12/24 08:44:47;;;;;;;;;;;16.40;68.60;;;;;;7324651;19;9494;-60
2023/12/24 08:47:36;;;;;;;;;;;16.40;68.50;;;;;;7324392;19;9618;-60
2023/12/24 08:50:06;;;;;;;;;;;16.40;69.20;;;;;;7324929;19;8992;-60
2023/12/24 08:52:35;;;;;;;;;;;16.40;68.60;;;;;;7324706;19;9605;-60
2023/12/24 08:55:07;;;;;;;;;;;16.40;68.60;;;;;;7324395;19;9501;-60
2023/12/24 08:57:36;;;;;;;;;;;16.40;68.60;;;;;;7325307;19;9520;-60
2023/12/24 09:00:11;;;;;;;;;;;16.40;68.50;;;;;;7324297;19;9614;-60
2023/12/24 09:02:40;;;;;;;;;;;16.40;68.60;;;;;;7324639;19;9442;-60
2023/12/24 09:05:10;;;;;;;;;;;16.40;68.60;;;;;;7324536;19;9620;-60
2023/12/24 09:07:41;;;;;;;;;;;16.40;68.70;;;;;;7324741;19;9272;-60
2023/12/24 09:10:12;;;;;;;;;;;16.40;68.50;;;;;;7324782;19;9434;-60
2023/12/24 09:12:41;;;;;;;;;;;16.40;68.50;;;;;;7324565;19;9683;-60
2023/12/24 09:15:11;;;;;;;;;;;16.50;68.80;;;;;;7324563;19;9220;-60
2023/12/24 09:17:40;;;;;;;;;;;16.40;68.80;;;;;;7323224;19;9273;-60
2023/12/24 09:20:10;;;;;;;;;;;16.40;68.80;;;;;;7325130;19;9191;-61
2023/12/24 09:22:39;;;;;;;;;;;16.40;68.80;;;;;;7322680;19;9594;-60
2023/12/24 09:25:12;;;;;;;;;;;16.40;68.80;;;;;;7324157;19;9179;-60
2023/12/24 09:27:41;;;;;;;;;;;16.40;68.90;;;;;;7323748;19;9468;-60
2023/12/24 09:30:11;;;;;;;;;;;16.40;68.80;;;;;;7323986;19;9681;-60
2023/12/24 09:32:43;;;;;;;;;;;16.40;68.90;;;;;;7323909;19;9217;-60
2023/12/24 09:35:12;;;;;;;;;;;16.40;69.30;;;;;;7323795;19;9478;-60
2023/12/24 09:37:40;;;;;;;;;;;16.40;68.90;;;;;;7323556;19;9569;-59
2023/12/24 09:40:13;;;;;;;;;;;16.40;69.00;;;;;;7323868;19;9213;-60
2023/12/24 09:42:42;;;;;;;;;;;16.40;69.00;;;;;;7324160;19;9229;-59
2023/12/24 09:45:11;;;;;;;;;;;16.40;69.10;;;;;;7323001;19;9469;-59
2023/12/24 09:47:40;;;;;;;;;;;16.40;69.00;;;;;;7324141;19;9441;-60
2023/12/24 09:50:10;;;;;;;;;;;16.40;69.60;;;;;;7322377;19;9227;-59
2023/12/24 09:52:39;;;;;;;;;;;16.40;68.90;;;;;;7323192;19;9186;-59
2023/12/24 09:55:11;;;;;;;;;;;16.40;69.00;;;;;;7322366;19;9822;-59
2023/12/24 09:57:42;;;;;;;;;;;16.40;69.00;;;;;;7323523;19;9507;-59
2023/12/24 10:00:12;;;;;;;;;;;16.40;69.10;;;;;;7322096;19;9155;-59
2023/12/24 10:02:41;;;;;;;;;;;16.40;69.00;;;;;;7322908;19;9410;-59
2023/12/24 10:05:14;;;;;;;;;;;16.40;69.10;;;;;;7322567;19;9454;-59
2023/12/24 10:07:45;;;;;;;;;;;16.40;69.10;;;;;;7322540;19;9242;-59
2023/12/24 10:10:17;;;;;;;;;;;16.40;69.10;;;;;;7322802;19;9309;-59
2023/12/24 10:12:46;;;;;;;;;;;16.40;69.10;;;;;;7323189;19;10676;-60
2023/12/24 10:15:19;;;;;;;;;;;16.40;69.20;;;;;;7329512;19;9422;-59
2023/12/24 10:17:48;;;;;;;;;;;16.40;69.10;;;;;;7328711;19;9177;-60
2023/12/24 10:20:17;;;;;;;;;;;16.40;69.10;;;;;;7329442;19;9339;-60
2023/12/24 10:22:46;;;;;;;;;;;16.40;69.20;;;;;;7328069;19;9617;-60
2023/12/24 10:25:19;;;;;;;;;;;16.40;69.20;;;;;;7328953;19;9203;-60
2023/12/24 10:27:49;;;;;;;;;;;16.40;69.20;;;;;;7328515;19;9693;-59
2023/12/24 10:30:38;;;;;;;;;;;16.40;69.40;;;;;;7326455;19;9503;-60
2023/12/24 10:33:12;;;;;;;;;;;16.40;69.40;;;;;;7329679;19;9501;-59
2023/12/24 10:35:41;;;;;;;;;;;16.40;69.50;;;;;;7327428;19;9528;-59
2023/12/24 10:38:16;;;;;;;;;;;16.40;69.50;;;;;;7328771;19;9511;-59
2023/12/24 10:40:47;;;;;;;;;;;16.40;69.50;;;;;;7328047;19;9282;-60
2023/12/24 10:43:36;;;;;;;;;;;16.40;69.40;;;;;;7326255;19;9301;-59
2023/12/24 10:46:06;;;;;;;;;;;16.40;69.40;;;;;;7328724;19;9412;-60
2023/12/24 10:48:35;;;;;;;;;;;16.40;69.50;;;;;;7328523;19;9187;-59
2023/12/24 10:51:03;;;;;;;;;;;16.40;69.40;;;;;;7328355;19;9241;-59
2023/12/24 10:53:32;;;;;;;;;;;16.40;69.50;;;;;;7327436;19;9438;-59
2023/12/24 10:56:09;;;;;;;;;;;16.40;69.70;;;;;;7327911;19;9133;-59
2023/12/24 10:58:51;;;;;;;;;;;16.40;69.50;;;;;;7328355;19;9469;-59
2023/12/24 11:01:21;;;;;;;;;;;16.40;69.60;;;;;;7327712;19;10854;-59
2023/12/24 11:03:53;;;;;;;;;;;16.40;69.60;;;;;;7328041;19;9226;-59
2023/12/24 11:06:49;;;;;;;;;;;16.40;69.60;;;;;;7326969;19;9229;-59
2023/12/24 11:09:46;;;;;;;;;;;16.40;69.80;;;;;;7326829;19;9465;-59
2023/12/24 11:12:39;;;;;;;;;;;16.40;69.80;;;;;;7328116;19;9198;-59
2023/12/24 11:15:11;;;;;;;;;;;16.40;69.80;;;;;;7327564;19;9532;-59
2023/12/24 11:18:00;;;;;;;;;;;16.40;69.70;;;;;;7325441;19;9498;-60
2023/12/24 11:20:43;;;;;;;;;;;16.40;69.90;;;;;;7327211;19;9389;-60
2023/12/24 11:23:17;;;;;;;;;;;16.40;69.90;;;;;;7327630;19;9282;-59
2023/12/24 11:25:50;;;;;;;;;;;16.40;69.80;;;;;;7326232;19;9508;-59
2023/12/24 11:28:42;;;;;;;;;;;16.40;70.00;;;;;;7327996;19;9154;-59
2023/12/24 11:31:11;;;;;;;;;;;16.40;70.10;;;;;;7327063;19;9398;-59
2023/12/24 11:33:45;;;;;;;;;;;16.40;70.10;;;;;;7326456;19;9223;-60
2023/12/24 11:36:16;;;;;;;;;;;16.40;70.20;;;;;;7327343;19;9442;-59
2023/12/24 11:38:45;;;;;;;;;;;16.40;70.10;;;;;;7325903;19;9194;-60
2023/12/24 11:41:16;;;;;;;;;;;16.40;70.80;;;;;;7327144;19;9473;-59
2023/12/24 11:43:57;;;;;;;;;;;16.40;70.20;;;;;;7327220;19;9413;-60
2023/12/24 11:46:28;;;;;;;;;;;16.40;70.20;;;;;;7327278;19;9232;-59
2023/12/24 11:48:58;;;;;;;;;;;16.40;70.10;;;;;;7325932;19;9233;-59
2023/12/24 11:51:31;;;;;;;;;;;16.40;70.20;;;;;;7326999;19;9291;-59
2023/12/24 11:54:04;;;;;;;;;;;16.40;70.20;;;;;;7326243;19;9307;-59
2023/12/24 11:56:34;;;;;;;;;;;16.40;70.40;;;;;;7326287;19;9274;-59
2023/12/24 11:59:26;;;;;;;;;;;16.40;70.30;;;;;;7324913;19;9549;-59
2023/12/24 12:02:06;;;;;;;;;;;16.30;70.30;;;;;;7325884;19;9535;-59
2023/12/24 12:04:35;;;;;;;;;;;16.40;70.20;;;;;;7325777;19;9424;-59
2023/12/24 12:07:03;;;;;;;;;;;16.40;70.40;;;;;;7326375;19;9236;-60
2023/12/24 12:09:32;;;;;;;;;;;16.40;70.30;;;;;;7325471;19;9226;-60
2023/12/24 12:12:01;;;;;;;;;;;16.40;70.40;;;;;;7325862;19;10424;-59
2023/12/24 12:14:33;;;;;;;;;;;16.40;70.50;;;;;;7325121;19;9751;-59
2023/12/24 12:17:01;;;;;;;;;;;16.40;70.60;;;;;;7324857;19;9533;-59
2023/12/24 12:19:50;;;;;;;;;;;16.40;70.40;;;;;;7324952;19;9498;-59
2023/12/24 12:22:19;;;;;;;;;;;16.40;70.60;;;;;;7326437;19;9678;-59
2023/12/24 12:24:48;;;;;;;;;;;16.40;70.50;;;;;;7325760;19;9351;-59
2023/12/24 12:27:18;;;;;;;;;;;16.40;70.40;;;;;;7325208;19;9480;-59
2023/12/24 12:29:49;;;;;;;;;;;16.40;70.80;;;;;;7324614;19;9475;-59
2023/12/24 12:32:18;;;;;;;;;;;16.40;70.70;;;;;;7324773;19;9649;-59
2023/12/24 12:34:47;;;;;;;;;;;16.40;70.90;;;;;;7324912;19;9594;-60
2023/12/24 12:37:16;;;;;;;;;;;16.40;70.80;;;;;;7322485;19;9667;-60
2023/12/24 12:39:45;;;;;;;;;;;16.40;71.00;;;;;;7325250;19;9598;-59
2023/12/24 12:42:14;;;;;;;;;;;16.40;71.00;;;;;;7324085;19;9328;-59
2023/12/24 12:44:43;;;;;;;;;;;16.40;70.90;;;;;;7325189;19;9445;-59
2023/12/24 12:47:15;;;;;;;;;;;16.40;71.00;;;;;;7324482;19;9609;-59
2023/12/24 12:49:44;;;;;;;;;;;16.30;70.80;;;;;;7325270;19;9291;-60
2023/12/24 12:52:13;;;;;;;;;;;16.40;70.90;;;;;;7324405;19;9269;-60
2023/12/24 12:54:42;;;;;;;;;;;16.30;71.00;;;;;;7325017;19;9534;-59
2023/12/24 12:57:11;;;;;;;;;;;16.40;71.20;;;;;;7325193;19;9707;-59
2023/12/24 12:59:41;;;;;;;;;;;16.40;71.20;;;;;;7324558;19;9758;-59
2023/12/24 13:02:10;;;;;;;;;;;16.40;71.20;;;;;;7324683;19;9525;-59
2023/12/24 13:04:47;;;;;;;;;;;16.40;71.20;;;;;;7324288;19;9245;-59
2023/12/24 13:07:17;;;;;;;;;;;16.40;71.20;;;;;;7324971;19;9405;-60
2023/12/24 13:09:49;;;;;;;;;;;16.30;71.00;;;;;;7324609;19;9380;-59
2023/12/24 13:12:20;;;;;;;;;;;16.40;71.20;;;;;;7325127;19;9481;-59
2023/12/24 13:14:53;;;;;;;;;;;16.40;71.30;;;;;;7323646;19;9193;-59
2023/12/24 13:17:26;;;;;;;;;;;16.40;71.90;;;;;;7324573;19;9298;-59
2023/12/24 13:19:57;;;;;;;;;;;16.30;71.20;;;;;;7324645;19;9188;-59
2023/12/24 13:22:27;;;;;;;;;;;16.30;71.20;;;;;;7324128;19;9529;-60
2023/12/24 13:24:58;;;;;;;;;;;16.30;71.30;;;;;;7324860;19;9479;-59
2023/12/24 13:27:28;;;;;;;;;;;16.30;71.50;;;;;;7323955;19;9451;-60
2023/12/24 13:29:57;;;;;;;;;;;16.30;71.20;;;;;;7324315;19;9493;-60
2023/12/24 13:32:25;;;;;;;;;;;16.30;71.50;;;;;;7323134;19;9481;-60
2023/12/24 13:34:57;;;;;;;;;;;16.30;71.50;;;;;;7323926;19;9641;-59
2023/12/24 13:37:26;;;;;;;;;;;16.40;71.60;;;;;;7323846;19;9490;-59
2023/12/24 13:39:55;;;;;;;;;;;16.30;71.60;;;;;;7324057;19;9469;-59
2023/12/24 13:42:24;;;;;;;;;;;16.40;71.60;;;;;;7322953;19;10062;-59
2023/12/24 13:44:53;;;;;;;;;;;16.30;71.70;;;;;;7323629;19;10675;-59
2023/12/24 13:47:22;;;;;;;;;;;16.30;71.70;;;;;;7322808;19;9465;-59
2023/12/24 13:50:13;;;;;;;;;;;16.30;71.70;;;;;;7320733;19;9382;-59
2023/12/24 13:52:42;;;;;;;;;;;16.30;71.70;;;;;;7322782;19;9270;-59
2023/12/24 13:55:12;;;;;;;;;;;16.30;71.80;;;;;;7323058;19;11324;-59
2023/12/24 13:57:41;;;;;;;;;;;16.30;71.70;;;;;;7322935;19;9248;-59
2023/12/24 14:00:12;;;;;;;;;;;16.30;71.70;;;;;;7322248;19;9198;-59
2023/12/24 14:02:43;;;;;;;;;;;16.30;71.70;;;;;;7323026;19;9460;-59
2023/12/24 14:05:15;;;;;;;;;;;16.30;71.80;;;;;;7322626;19;9470;-59
2023/12/24 14:07:45;;;;;;;;;;;16.30;71.80;;;;;;7323040;19;10356;-59
2023/12/24 14:10:14;;;;;;;;;;;16.30;72.00;;;;;;7322816;19;10694;-59
2023/12/24 14:12:44;;;;;;;;;;;16.30;72.00;;;;;;7322155;19;9528;-60
2023/12/24 14:15:13;;;;;;;;;;;16.30;72.00;;;;;;7323025;19;9218;-60
2023/12/24 14:17:42;;;;;;;;;;;16.30;71.90;;;;;;7322197;19;9623;-59
2023/12/24 14:20:16;;;;;;;;;;;16.30;72.10;;;;;;7322529;19;9350;-59
2023/12/24 14:22:46;;;;;;;;;;;16.30;72.50;;;;;;7321777;19;10819;-60
2023/12/24 14:25:15;;;;;;;;;;;16.30;72.00;;;;;;7322722;19;9235;-59
2023/12/24 14:27:45;;;;;;;;;;;16.30;72.30;;;;;;7322307;19;9461;-59
2023/12/24 14:30:15;;;;;;;;;;;16.30;72.00;;;;;;7323072;19;9249;-59
2023/12/24 14:32:44;;;;;;;;;;;16.30;72.00;;;;;;7322149;19;10713;-60
2023/12/24 14:35:15;;;;;;;;;;;16.30;72.20;;;;;;7322388;19;10693;-59
2023/12/24 14:37:44;;;;;;;;;;;16.30;72.20;;;;;;7322301;19;9519;-60
2023/12/24 14:40:13;;;;;;;;;;;16.30;72.10;;;;;;7321822;19;9465;-60
2023/12/24 14:42:42;;;;;;;;;;;16.30;72.30;;;;;;7321762;19;9505;-60
2023/12/24 14:45:12;;;;;;;;;;;16.30;72.20;;;;;;7322091;19;9484;-60
2023/12/24 14:47:41;;;;;;;;;;;16.30;72.50;;;;;;7322471;19;9469;-59
2023/12/24 14:50:11;;;;;;;;;;;16.30;72.50;;;;;;7320420;19;9333;-60
2023/12/24 14:52:42;;;;;;;;;;;16.30;72.40;;;;;;7322509;19;9230;-60